Time;durP1;ratioP1;P1;durP2;ratioP2;P2;SDS_P1;SDS_P2;PMS_P1;PMS_P2;Temp;Humidity;BMP_temperature;BMP_pressure;BME280_temperature;BME280_humidity;BME280_pressure;Samples;Min_cycle;Max_cycle;Signal;HPM_P1;HPM_P2
2023/04/19 00:00:44;;;;;;;0.25;0.20;;;;;;;8.62;84.16;100888.38;5048400;28;20483;-78
2023/04/19 00:03:13;;;;;;;0.68;0.38;;;;;;;8.59;83.59;100883.97;5038063;28;20744;-79
2023/04/19 00:05:43;;;;;;;0.50;0.30;;;;;;;8.60;84.78;100886.59;5044197;28;20049;-78
2023/04/19 00:08:12;;;;;;;0.50;0.45;;;;;;;8.63;83.62;100888.41;5041933;28;20140;-78
2023/04/19 00:10:40;;;;;;;0.52;0.30;;;;;;;8.64;84.94;100887.59;5044738;28;20049;-80
2023/04/19 00:13:09;;;;;;;1.30;0.77;;;;;;;8.68;84.63;100889.50;5044594;28;20048;-80
2023/04/19 00:15:39;;;;;;;0.30;0.20;;;;;;;8.73;83.70;100884.50;5043362;28;20486;-79
2023/04/19 00:18:07;;;;;;;0.88;0.38;;;;;;;8.79;84.13;100880.44;5044534;28;20052;-77
2023/04/19 00:20:36;;;;;;;3.38;0.43;;;;;;;8.81;82.88;100886.53;5050876;28;20483;-81
2023/04/19 00:23:06;;;;;;;0.85;0.35;;;;;;;8.89;83.77;100886.88;5041360;28;20049;-79
2023/04/19 00:25:35;;;;;;;1.05;0.40;;;;;;;8.94;81.95;100887.91;5046765;28;20091;-79
2023/04/19 00:28:04;;;;;;;0.63;0.47;;;;;;;8.96;82.09;100888.84;5042587;28;20052;-80
2023/04/19 00:30:33;;;;;;;0.30;0.25;;;;;;;9.01;80.93;100891.59;5047521;28;20059;-86
2023/04/19 00:33:01;;;;;;;1.35;0.40;;;;;;;9.04;80.25;100883.09;5044471;28;20045;-83
2023/04/19 00:35:30;;;;;;;1.10;0.30;;;;;;;9.05;82.55;100879.69;5048097;28;20051;-82
2023/04/19 00:37:58;;;;;;;0.75;0.40;;;;;;;9.07;81.53;100876.34;5034414;28;20064;-80
2023/04/19 00:40:29;;;;;;;4.55;0.55;;;;;;;9.06;81.16;100886.63;5047824;28;20096;-78
2023/04/19 00:42:57;;;;;;;1.13;0.50;;;;;;;8.97;80.79;100888.00;5044604;28;20049;-77
2023/04/19 00:45:26;;;;;;;0.13;0.13;;;;;;;8.89;83.26;100888.56;5053523;28;20060;-78
2023/04/19 00:47:56;;;;;;;0.82;0.40;;;;;;;8.85;85.63;100891.84;5041360;28;20051;-83
2023/04/19 00:50:25;;;;;;;0.75;0.30;;;;;;;8.74;84.79;100892.28;5043210;28;20075;-80
2023/04/19 00:52:56;;;;;;;1.45;0.55;;;;;;;8.77;88.85;100894.09;5047317;28;20136;-80
2023/04/19 00:55:25;;;;;;;1.10;0.32;;;;;;;8.79;86.69;100895.06;5053186;28;20140;-80
2023/04/19 00:57:56;;;;;;;0.98;0.30;;;;;;;8.81;86.93;100880.50;5045639;28;20447;-84
2023/04/19 01:00:24;;;;;;;0.20;0.20;;;;;;;8.84;86.09;100879.75;5049867;28;20053;-82
2023/04/19 01:02:54;;;;;;;0.10;0.10;;;;;;;8.91;87.31;100881.72;5051365;28;20128;-81
2023/04/19 01:05:22;;;;;;;0.55;0.32;;;;;;;8.99;88.74;100885.50;5053257;28;20076;-84
2023/04/19 01:07:51;;;;;;;0.10;0.10;;;;;;;9.05;88.64;100879.69;5052146;28;20073;-83
2023/04/19 01:10:20;;;;;;;0.30;0.13;;;;;;;9.12;87.51;100879.13;5049894;28;20415;-82
2023/04/19 01:12:48;;;;;;;0.63;0.13;;;;;;;9.19;86.99;100879.38;5049102;28;20087;-84
2023/04/19 01:15:19;;;;;;;0.68;0.30;;;;;;;9.24;87.73;100879.56;5054755;28;20131;-82
2023/04/19 01:17:48;;;;;;;0.20;0.20;;;;;;;9.26;85.86;100883.06;5052255;28;20046;-83
2023/04/19 01:20:16;;;;;;;0.82;0.40;;;;;;;9.28;86.05;100884.00;5064351;28;20095;-82
2023/04/19 01:22:47;;;;;;;0.35;0.20;;;;;;;9.29;85.19;100880.59;5061403;28;20152;-83
2023/04/19 01:25:15;;;;;;;0.73;0.20;;;;;;;9.30;85.31;100887.53;5053284;28;20089;-83
2023/04/19 01:27:44;;;;;;;2.72;0.20;;;;;;;9.28;85.54;100886.59;5041973;28;20057;-87
2023/04/19 01:30:14;;;;;;;0.30;0.17;;;;;;;9.27;86.08;100892.56;5057243;28;20048;-83
2023/04/19 01:32:42;;;;;;;0.45;0.20;;;;;;;9.26;85.73;100890.81;5055758;28;20048;-84
2023/04/19 01:35:11;;;;;;;1.23;0.40;;;;;;;9.23;84.74;100888.09;5059378;28;20073;-90
2023/04/19 01:37:40;;;;;;;1.58;0.20;;;;;;;9.13;82.78;100896.34;5038957;28;20049;-83
2023/04/19 01:40:13;;;;;;;1.10;0.30;;;;;;;9.04;80.02;100903.75;5052085;28;20067;-85
2023/04/19 01:42:42;;;;;;;0.85;0.80;;;;;;;8.93;81.22;100911.97;5049441;28;20099;-84
2023/04/19 01:45:11;;;;;;;0.17;0.17;;;;;;;8.80;83.18;100918.34;5051052;28;20573;-81
2023/04/19 01:47:40;;;;;;;1.65;0.50;;;;;;;8.49;86.44;100915.34;5045936;28;20049;-82
2023/04/19 01:50:09;;;;;;;0.30;0.00;;;;;;;8.05;85.73;100911.81;5045693;28;20114;-79
2023/04/19 01:52:38;;;;;;;0.50;0.30;;;;;;;7.64;90.58;100906.63;5051184;28;20060;-79
2023/04/19 01:55:09;;;;;;;0.25;0.08;;;;;;;7.57;93.37;100907.16;5039974;28;20437;-82
2023/04/19 01:57:38;;;;;;;0.10;0.10;;;;;;;7.56;95.65;100897.69;5053296;28;20044;-85
2023/04/19 02:00:07;;;;;;;0.10;0.10;;;;;;;7.54;94.99;100901.91;5043187;28;20495;-83
2023/04/19 02:02:38;;;;;;;0.03;0.03;;;;;;;7.49;96.67;100900.78;5042700;28;20055;-82
2023/04/19 02:05:08;;;;;;;0.05;0.05;;;;;;;7.49;95.91;100905.94;5050272;28;20041;-82
2023/04/19 02:07:37;;;;;;;0.00;0.00;;;;;;;7.48;96.38;100899.91;5042497;28;20056;-81
2023/04/19 02:10:14;;;;;;;0.10;0.10;;;;;;;7.50;97.21;100902.56;5048219;28;20123;-84
2023/04/19 02:12:43;;;;;;;0.40;0.20;;;;;;;7.51;97.29;100900.06;5051563;28;20051;-83
2023/04/19 02:15:12;;;;;;;0.93;0.20;;;;;;;7.53;98.74;100903.56;5035350;28;20643;-80
2023/04/19 02:17:41;;;;;;;0.32;0.20;;;;;;;7.53;98.76;100906.13;5042942;28;20510;-82
2023/04/19 02:20:11;;;;;;;0.52;0.20;;;;;;;7.52;99.94;100903.53;5039692;28;20486;-82
2023/04/19 02:22:39;;;;;;;1.25;0.17;;;;;;;7.53;100.00;100903.56;5045309;28;20075;-82
2023/04/19 02:25:09;;;;;;;0.45;0.10;;;;;;;7.53;99.92;100908.72;5042196;28;20048;-83
2023/04/19 02:27:39;;;;;;;0.43;0.20;;;;;;;7.56;99.72;100897.69;5040002;28;20049;-82
2023/04/19 02:30:09;;;;;;;0.47;0.30;;;;;;;7.61;100.00;100895.31;5043826;28;20127;-82
2023/04/19 02:32:38;;;;;;;0.65;0.30;;;;;;;7.63;100.00;100893.66;5050029;28;20524;-83
2023/04/19 02:35:07;;;;;;;0.20;0.10;;;;;;;7.66;100.00;100888.66;5042982;28;20041;-82
2023/04/19 02:37:36;;;;;;;0.25;0.20;;;;;;;7.68;100.00;100889.63;5047140;28;20055;-83
2023/04/19 02:40:06;;;;;;;0.10;0.10;;;;;;;7.70;100.00;100891.44;5050505;28;20068;-79
2023/04/19 02:42:35;;;;;;;0.55;0.20;;;;;;;7.71;100.00;100888.03;5046954;28;20041;-82
2023/04/19 02:45:06;;;;;;;0.75;0.65;;;;;;;7.72;100.00;100888.94;5042033;28;20052;-80
2023/04/19 02:47:35;;;;;;;0.45;0.20;;;;;;;7.71;100.00;100890.63;5048201;28;20049;-80
2023/04/19 02:50:06;;;;;;;0.47;0.25;;;;;;;7.67;100.00;100893.91;5040921;28;20041;-78
2023/04/19 02:52:35;;;;;;;0.10;0.10;;;;;;;7.61;100.00;100901.34;5043843;28;20052;-79
2023/04/19 02:55:04;;;;;;;0.65;0.35;;;;;;;7.49;100.00;100909.41;5053869;28;20048;-80
2023/04/19 02:57:33;;;;;;;0.40;0.32;;;;;;;7.43;100.00;100910.84;5062874;28;20215;-78
2023/04/19 03:00:04;;;;;;;0.40;0.20;;;;;;;7.32;100.00;100908.66;5064074;28;20493;-79
2023/04/19 03:02:34;;;;;;;1.10;0.22;;;;;;;7.20;100.00;100912.38;5066650;28;20049;-79
2023/04/19 03:05:03;;;;;;;0.10;0.10;;;;;;;7.18;100.00;100903.72;5066218;28;20098;-78
2023/04/19 03:07:31;;;;;;;1.17;0.20;;;;;;;7.16;100.00;100913.03;5063796;28;20084;-75
2023/04/19 03:10:00;;;;;;;0.60;0.20;;;;;;;7.11;100.00;100907.69;5062822;28;20071;-77
2023/04/19 03:12:29;;;;;;;0.20;0.20;;;;;;;7.07;99.90;100916.94;5063374;28;20722;-76
2023/04/19 03:15:01;;;;;;;0.00;0.00;;;;;;;7.04;98.21;100903.94;5063798;28;20605;-78
2023/04/19 03:17:30;;;;;;;0.15;0.10;;;;;;;7.06;100.00;100904.91;5065737;28;20056;-78
2023/04/19 03:20:00;;;;;;;0.57;0.20;;;;;;;7.07;100.00;100910.91;5060128;28;20521;-76
2023/04/19 03:22:29;;;;;;;0.32;0.20;;;;;;;7.09;100.00;100905.03;5066319;28;20056;-79
2023/04/19 03:24:58;;;;;;;0.03;0.03;;;;;;;7.12;100.00;100920.63;5060617;28;20052;-80
2023/04/19 03:27:27;;;;;;;0.08;0.08;;;;;;;7.10;100.00;100909.38;5066774;28;20059;-82
2023/04/19 03:29:56;;;;;;;0.65;0.20;;;;;;;7.09;100.00;100919.59;5067628;28;20464;-81
2023/04/19 03:32:25;;;;;;;1.02;0.20;;;;;;;7.00;100.00;100924.31;5071680;28;20564;-80
2023/04/19 03:34:54;;;;;;;0.43;0.20;;;;;;;6.94;100.00;100924.94;5068628;28;20043;-80
2023/04/19 03:37:24;;;;;;;0.32;0.20;;;;;;;6.93;100.00;100921.44;5077437;28;20078;-83
2023/04/19 03:39:53;;;;;;;0.00;0.00;;;;;;;6.92;100.00;100930.00;5074520;28;20036;-81
2023/04/19 03:42:22;;;;;;;1.00;0.47;;;;;;;6.89;100.00;100937.56;5069990;28;20040;-81
2023/04/19 03:44:51;;;;;;;0.13;0.03;;;;;;;6.88;100.00;100933.22;5073011;28;20041;-83
2023/04/19 03:47:19;;;;;;;0.35;0.20;;;;;;;6.85;100.00;100935.66;5080195;28;20127;-82
2023/04/19 03:49:48;;;;;;;0.63;0.10;;;;;;;6.87;100.00;100943.44;5065371;28;20498;-83
2023/04/19 03:52:16;;;;;;;0.00;0.00;;;;;;;6.85;100.00;100940.81;5070870;28;20478;-82
2023/04/19 03:54:47;;;;;;;6.40;0.20;;;;;;;6.85;100.00;100945.94;5047060;28;20061;-81
2023/04/19 03:57:17;;;;;;;0.10;0.10;;;;;;;6.84;100.00;100941.59;5048758;28;20084;-84
2023/04/19 03:59:46;;;;;;;0.20;0.10;;;;;;;6.84;100.00;100949.31;5064492;28;20069;-84
2023/04/19 04:02:14;;;;;;;3.63;0.15;;;;;;;6.83;100.00;100949.25;5087416;28;20146;-77
2023/04/19 04:04:43;;;;;;;0.08;0.05;;;;;;;6.79;100.00;100953.38;5078994;28;20102;-82
2023/04/19 04:07:11;;;;;;;0.52;0.20;;;;;;;6.76;100.00;100949.75;5071965;28;20040;-85
2023/04/19 04:09:40;;;;;;;0.17;0.17;;;;;;;6.77;100.00;100954.09;5070350;28;20067;-83
2023/04/19 04:12:12;;;;;;;1.55;0.45;;;;;;;6.76;100.00;100954.88;5071943;28;20044;-82
2023/04/19 04:14:41;;;;;;;0.10;0.10;;;;;;;6.75;100.00;100955.72;5068484;28;20088;-80
2023/04/19 04:17:09;;;;;;;0.95;0.35;;;;;;;6.71;100.00;100959.81;5063563;28;20057;-81
2023/04/19 04:19:38;;;;;;;0.25;0.20;;;;;;;6.72;100.00;100956.44;5069448;28;20063;-81
2023/04/19 04:22:07;;;;;;;0.22;0.10;;;;;;;6.75;100.00;100958.28;5068591;28;20410;-82
2023/04/19 04:24:40;;;;;;;0.43;0.20;;;;;;;6.77;100.00;100961.81;5064319;28;20049;-78
2023/04/19 04:27:09;;;;;;;;;;;;;;;6.78;100.00;100964.47;5071133;28;20094;-77
2023/04/19 04:29:40;;;;;;;2.40;0.13;;;;;;;6.80;100.00;100951.66;5065410;28;19921;-77
2023/04/19 04:32:09;;;;;;;0.60;0.10;;;;;;;6.81;100.00;100951.75;5069600;28;20567;-79
2023/04/19 04:34:39;;;;;;;0.10;0.10;;;;;;;6.85;100.00;100953.66;5066821;28;20037;-78
2023/04/19 04:37:08;;;;;;;1.38;0.17;;;;;;;6.84;100.00;100954.44;5067454;28;20041;-79
2023/04/19 04:39:38;;;;;;;0.20;0.10;;;;;;;6.86;100.00;100957.09;5065484;28;20145;-78
2023/04/19 04:42:07;;;;;;;0.80;0.30;;;;;;;6.87;100.00;100958.84;5065150;28;20041;-80
2023/04/19 04:44:38;;;;;;;0.20;0.00;;;;;;;6.85;100.00;100966.53;5066953;28;20052;-78
2023/04/19 04:47:06;;;;;;;0.32;0.28;;;;;;;6.87;100.00;100956.28;5074944;28;20390;-81
2023/04/19 04:49:35;;;;;;;0.13;0.10;;;;;;;6.90;100.00;100961.59;5067155;28;20052;-81
2023/04/19 04:52:05;;;;;;;0.17;0.10;;;;;;;6.90;100.00;100959.91;5062688;28;20513;-80
2023/04/19 04:54:33;;;;;;;2.08;0.30;;;;;;;6.91;100.00;100959.06;5057900;28;20132;-81
2023/04/19 04:57:02;;;;;;;0.30;0.20;;;;;;;6.89;100.00;100960.72;5049108;28;20045;-79
2023/04/19 04:59:31;;;;;;;0.32;0.10;;;;;;;6.90;100.00;100957.31;5064636;28;20052;-80
2023/04/19 05:02:01;;;;;;;0.20;0.15;;;;;;;6.89;100.00;100957.25;5070339;28;20080;-78
2023/04/19 05:04:30;;;;;;;0.25;0.20;;;;;;;6.86;100.00;100960.56;5070448;28;20053;-80
2023/04/19 05:07:05;;;;;;;0.50;0.40;;;;;;;6.79;100.00;100961.06;5069713;28;20047;-78
2023/04/19 05:09:34;;;;;;;0.20;0.20;;;;;;;6.76;100.00;100955.78;5066597;28;20048;-78
2023/04/19 05:12:06;;;;;;;0.32;0.30;;;;;;;6.78;100.00;100959.31;5069311;28;20052;-80
2023/04/19 05:14:35;;;;;;;0.52;0.22;;;;;;;6.77;100.00;100961.81;5063205;28;20059;-79
2023/04/19 05:17:05;;;;;;;0.25;0.15;;;;;;;6.78;100.00;100951.63;5070907;28;20152;-82
2023/04/19 05:19:34;;;;;;;0.47;0.20;;;;;;;6.78;100.00;100958.41;5068512;28;20084;-80
2023/04/19 05:22:02;;;;;;;1.02;0.40;;;;;;;6.76;100.00;100960.03;5060276;28;20052;-79
2023/04/19 05:24:31;;;;;;;0.30;0.17;;;;;;;6.71;100.00;100967.53;5059775;28;20076;-82
2023/04/19 05:27:00;;;;;;;0.65;0.35;;;;;;;6.64;100.00;100976.66;5066751;28;20044;-79
2023/04/19 05:29:29;;;;;;;0.80;0.68;;;;;;;6.50;100.00;100970.84;5059323;28;20052;-75
2023/04/19 05:31:59;;;;;;;1.73;0.60;;;;;;;6.48;100.00;100977.59;5069187;28;20044;-79
2023/04/19 05:34:29;;;;;;;0.20;0.10;;;;;;;6.37;100.00;100971.03;5063058;28;20055;-77
2023/04/19 05:36:57;;;;;;;0.50;0.10;;;;;;;6.42;100.00;100974.72;5068160;28;20048;-79
2023/04/19 05:39:26;;;;;;;0.90;0.20;;;;;;;6.40;100.00;100975.44;5065440;28;20076;-80
2023/04/19 05:41:55;;;;;;;0.10;0.10;;;;;;;6.37;100.00;100970.13;5065060;28;20044;-79
2023/04/19 05:44:23;;;;;;;0.00;0.00;;;;;;;6.35;100.00;100976.91;5072656;28;20247;-79
2023/04/19 05:46:52;;;;;;;0.40;0.15;;;;;;;6.28;100.00;100975.72;5070617;28;20045;-80
2023/04/19 05:49:21;;;;;;;0.45;0.20;;;;;;;6.29;100.00;100967.19;5066582;28;20059;-79
2023/04/19 05:51:53;;;;;;;0.50;0.30;;;;;;;6.29;100.00;100969.75;5066016;28;20094;-80
2023/04/19 05:54:21;;;;;;;0.13;0.10;;;;;;;6.25;100.00;100967.84;5054551;28;20067;-79
2023/04/19 05:56:50;;;;;;;3.72;0.43;;;;;;;6.23;100.00;100967.78;5047404;28;20118;-79
2023/04/19 05:59:18;;;;;;;2.20;0.28;;;;;;;6.24;100.00;100966.09;5047204;28;20052;-81
2023/04/19 06:01:47;;;;;;;1.40;0.20;;;;;;;6.26;100.00;100967.03;5063361;28;20076;-78
2023/04/19 06:04:15;;;;;;;0.20;0.10;;;;;;;6.25;100.00;100965.25;5064181;28;20048;-80
2023/04/19 06:06:44;;;;;;;0.13;0.10;;;;;;;6.23;100.00;100966.88;5064967;28;20083;-80
2023/04/19 06:09:16;;;;;;;0.20;0.20;;;;;;;6.20;100.00;100972.75;5062006;28;20119;-78
2023/04/19 06:11:45;;;;;;;0.30;0.15;;;;;;;6.19;100.00;100970.13;5063187;28;20139;-81
2023/04/19 06:14:14;;;;;;;0.50;0.20;;;;;;;6.21;100.00;100963.38;5063547;28;20140;-80
2023/04/19 06:16:43;;;;;;;0.60;0.30;;;;;;;6.21;100.00;100965.94;5065941;28;20033;-80
2023/04/19 06:19:11;;;;;;;0.88;0.30;;;;;;;6.20;100.00;100965.03;5056601;28;20090;-80
2023/04/19 06:21:41;;;;;;;0.52;0.30;;;;;;;6.18;100.00;100965.75;5064082;28;20059;-79
2023/04/19 06:24:09;;;;;;;0.40;0.30;;;;;;;6.19;100.00;100965.84;5056716;28;20182;-81
2023/04/19 06:26:40;;;;;;;0.57;0.28;;;;;;;6.20;100.00;100966.72;5062889;28;20044;-80
2023/04/19 06:29:08;;;;;;;0.95;0.45;;;;;;;6.18;100.00;100968.34;5062595;28;20045;-81
2023/04/19 06:31:37;;;;;;;0.10;0.10;;;;;;;6.18;100.00;100964.06;5059922;28;20091;-80
2023/04/19 06:34:06;;;;;;;1.20;0.25;;;;;;;6.20;100.00;100970.16;5063060;28;20068;-80
2023/04/19 06:36:34;;;;;;;1.30;0.50;;;;;;;6.20;100.00;100969.28;5061856;28;20052;-79
2023/04/19 06:39:04;;;;;;;0.80;0.30;;;;;;;6.21;100.00;100971.09;5058802;28;20049;-81
2023/04/19 06:41:32;;;;;;;1.92;0.30;;;;;;;6.17;100.00;100971.72;5065753;28;20093;-78
2023/04/19 06:44:02;;;;;;;0.20;0.20;;;;;;;6.18;100.00;100960.63;5063881;28;20106;-79
2023/04/19 06:46:31;;;;;;;0.22;0.20;;;;;;;6.21;100.00;100968.50;5066729;28;20072;-81
2023/04/19 06:49:00;;;;;;;0.93;0.40;;;;;;;6.19;100.00;100975.25;5062443;28;20048;-79
2023/04/19 06:51:29;;;;;;;0.63;0.30;;;;;;;6.20;100.00;100972.75;5063251;28;20044;-79
2023/04/19 06:53:57;;;;;;;2.60;0.55;;;;;;;6.19;100.00;100977.81;5060300;28;20115;-80
2023/04/19 06:56:44;;;;;;;0.85;0.38;;;;;;;6.20;100.00;100979.56;5044012;28;20077;-81
2023/04/19 06:59:15;;;;;;;0.50;0.47;;;;;;;6.18;100.00;100974.34;5068720;28;20055;-79
2023/04/19 07:01:44;;;;;;;0.98;0.40;;;;;;;6.13;100.00;100968.09;5064525;28;20044;-80
2023/04/19 07:04:14;;;;;;;2.65;0.50;;;;;;;6.13;100.00;100969.78;5068247;28;20092;-80
2023/04/19 07:06:43;;;;;;;0.60;0.30;;;;;;;6.13;100.00;100975.81;5064927;28;20050;-83
2023/04/19 07:09:11;;;;;;;1.15;0.50;;;;;;;6.18;100.00;100968.34;5064590;28;20603;-81
2023/04/19 07:11:40;;;;;;;2.22;0.40;;;;;;;6.16;100.00;100964.81;5065908;28;20049;-79
2023/04/19 07:14:09;;;;;;;1.45;0.55;;;;;;;6.16;100.00;100964.81;5065306;28;20067;-82
2023/04/19 07:16:41;;;;;;;4.95;0.52;;;;;;;6.15;100.00;100970.75;5070289;28;20045;-80
2023/04/19 07:19:09;;;;;;;;;;;;;;;6.16;100.00;100975.06;5068582;28;20466;-77
2023/04/19 07:21:38;;;;;;;4.35;0.75;;;;;;;6.07;100.00;100960.09;5066957;28;20431;-80
2023/04/19 07:24:07;;;;;;;4.40;0.95;;;;;;;6.05;100.00;100972.88;5068898;28;20068;-81
2023/04/19 07:26:36;;;;;;;1.40;0.50;;;;;;;6.03;100.00;100974.47;5063415;28;20056;-80
2023/04/19 07:29:05;;;;;;;0.57;0.43;;;;;;;6.05;100.00;100970.28;5059110;28;20071;-81
2023/04/19 07:31:33;;;;;;;0.93;0.68;;;;;;;6.02;100.00;100977.81;5066149;28;20052;-80
2023/04/19 07:34:03;;;;;;;0.95;0.73;;;;;;;5.96;100.00;100967.25;5066122;28;20161;-79
2023/04/19 07:36:34;;;;;;;0.45;0.40;;;;;;;5.93;100.00;100971.31;5064421;28;20663;-79
2023/04/19 07:39:03;;;;;;;0.35;0.30;;;;;;;5.94;100.00;100968.84;5065691;28;20056;-78
2023/04/19 07:41:32;;;;;;;1.63;0.70;;;;;;;5.97;100.00;100969.00;5064049;28;20044;-79
2023/04/19 07:44:00;;;;;;;1.40;0.50;;;;;;;5.95;100.00;100973.19;5061713;28;20040;-79
2023/04/19 07:46:29;;;;;;;1.10;0.50;;;;;;;5.96;100.00;100971.53;5069536;28;20055;-78
2023/04/19 07:48:58;;;;;;;4.05;0.50;;;;;;;5.98;100.00;100975.03;5063698;28;20052;-79
2023/04/19 07:51:28;;;;;;;1.15;0.60;;;;;;;5.98;100.00;100975.94;5061559;28;20087;-82
2023/04/19 07:53:57;;;;;;;0.28;0.28;;;;;;;5.95;100.00;100975.75;5062323;28;20505;-83
2023/04/19 07:56:26;;;;;;;1.77;0.50;;;;;;;5.99;100.00;100989.66;5022265;28;20045;-78
2023/04/19 07:58:55;;;;;;;0.98;0.38;;;;;;;5.98;100.00;100981.06;5021525;28;20053;-82
2023/04/19 08:01:26;;;;;;;1.30;0.60;;;;;;;5.97;100.00;100983.53;5014612;28;20164;-82
2023/04/19 08:03:54;;;;;;;0.57;0.40;;;;;;;5.98;100.00;100983.63;5011957;28;20052;-80
2023/04/19 08:06:23;;;;;;;0.88;0.47;;;;;;;5.97;100.00;100979.28;5018814;28;20724;-80
2023/04/19 08:08:53;;;;;;;0.52;0.38;;;;;;;5.96;100.00;100981.78;5013160;28;20128;-79
2023/04/19 08:11:23;;;;;;;1.23;0.43;;;;;;;5.96;100.00;100977.53;5020202;28;20656;-80
2023/04/19 08:13:52;;;;;;;0.30;0.28;;;;;;;5.98;100.00;100975.94;5017867;28;20072;-78
2023/04/19 08:16:21;;;;;;;0.77;0.40;;;;;;;5.99;100.00;100972.53;5021709;28;20133;-78
2023/04/19 08:18:51;;;;;;;0.93;0.50;;;;;;;5.99;100.00;100964.84;5025302;28;20108;-78
2023/04/19 08:21:19;;;;;;;1.73;0.30;;;;;;;5.93;100.00;100972.19;5027792;28;20085;-78
2023/04/19 08:23:48;;;;;;;0.80;0.60;;;;;;;5.88;100.00;100964.25;5021803;28;20057;-79
2023/04/19 08:26:18;;;;;;;0.90;0.38;;;;;;;5.90;100.00;100976.28;5030676;28;20053;-80
2023/04/19 08:28:48;;;;;;;1.15;0.22;;;;;;;5.92;100.00;100973.00;5028011;28;20231;-82
2023/04/19 08:31:18;;;;;;;0.57;0.20;;;;;;;5.95;100.00;100970.59;5024724;28;20045;-79
2023/04/19 08:33:47;;;;;;;0.95;0.38;;;;;;;5.95;100.00;100980.88;5024369;28;20051;-79
2023/04/19 08:36:16;;;;;;;0.57;0.40;;;;;;;5.97;100.00;100978.41;5026456;28;20494;-79
2023/04/19 08:38:45;;;;;;;0.85;0.40;;;;;;;5.96;100.00;100972.41;5030635;28;20128;-77
2023/04/19 08:41:14;;;;;;;3.00;0.32;;;;;;;5.94;100.00;100971.44;5025325;28;20119;-79
2023/04/19 08:43:45;;;;;;;0.93;0.50;;;;;;;5.96;100.00;100976.66;5024092;28;20045;-79
2023/04/19 08:46:14;;;;;;;0.38;0.20;;;;;;;5.94;100.00;100974.00;5026517;28;20680;-81
2023/04/19 08:48:44;;;;;;;2.15;0.43;;;;;;;5.93;100.00;100967.03;5023732;28;20042;-79
2023/04/19 08:51:15;;;;;;;1.88;0.43;;;;;;;5.88;100.00;100971.94;5019902;28;20121;-79
2023/04/19 08:53:44;;;;;;;2.38;0.63;;;;;;;5.88;100.00;100971.06;5024269;28;20052;-78
2023/04/19 08:56:13;;;;;;;1.15;0.32;;;;;;;5.85;100.00;100973.50;5040296;28;20083;-78
2023/04/19 08:58:42;;;;;;;0.52;0.30;;;;;;;5.87;100.00;100979.59;5039991;28;20045;-78
2023/04/19 09:01:12;;;;;;;0.47;0.20;;;;;;;5.85;100.00;100988.91;5048468;28;20502;-78
2023/04/19 09:03:46;;;;;;;0.55;0.30;;;;;;;5.80;100.00;100980.06;5050006;28;20048;-79
2023/04/19 09:06:14;;;;;;;0.63;0.32;;;;;;;5.83;100.00;100985.38;5047332;28;20087;-77
2023/04/19 09:08:43;;;;;;;1.23;0.40;;;;;;;5.81;100.00;100990.41;5048777;28;20051;-80
2023/04/19 09:11:12;;;;;;;1.27;0.45;;;;;;;5.80;100.00;100995.47;5052078;28;20565;-77
2023/04/19 09:13:43;;;;;;;0.73;0.35;;;;;;;5.79;100.00;100980.88;5043814;28;20277;-78
2023/04/19 09:16:26;;;;;;;1.58;0.70;;;;;;;5.81;100.00;100972.44;5043339;28;20045;-78
2023/04/19 09:18:56;;;;;;;0.95;0.55;;;;;;;5.80;100.00;100987.78;5046691;28;20066;-81
2023/04/19 09:21:34;;;;;;;1.15;0.50;;;;;;;5.78;100.00;100986.81;5047792;28;20442;-77
2023/04/19 09:24:03;;;;;;;0.47;0.30;;;;;;;5.81;100.00;100982.69;5047657;28;20049;-80
2023/04/19 09:26:33;;;;;;;1.48;0.40;;;;;;;5.79;100.00;100983.44;5046137;28;20053;-80
2023/04/19 09:29:03;;;;;;;0.63;0.43;;;;;;;5.81;100.00;100985.28;5042259;28;20633;-81
2023/04/19 09:31:35;;;;;;;0.50;0.30;;;;;;;5.82;100.00;100999.03;5042071;28;20052;-76
2023/04/19 09:34:14;;;;;;;0.35;0.30;;;;;;;5.85;100.00;100996.59;5040189;28;20045;-80
2023/04/19 09:36:43;;;;;;;0.30;0.22;;;;;;;5.88;100.00;100994.19;5044721;28;20064;-79
2023/04/19 09:39:13;;;;;;;0.73;0.60;;;;;;;5.87;100.00;100990.75;5044616;28;20049;-80
2023/04/19 09:41:53;;;;;;;0.43;0.28;;;;;;;5.92;100.00;100990.97;5048027;28;20139;-80
2023/04/19 09:44:22;;;;;;;1.30;0.40;;;;;;;5.92;100.00;100990.97;5047861;28;20098;-78
2023/04/19 09:46:52;;;;;;;0.52;0.35;;;;;;;5.89;100.00;101001.09;5040735;28;20307;-77
2023/04/19 09:49:23;;;;;;;0.50;0.40;;;;;;;5.88;100.00;100997.63;5038544;28;20449;-79
2023/04/19 09:51:53;;;;;;;0.63;0.32;;;;;;;5.89;100.00;100990.81;5047858;28;20053;-79
2023/04/19 09:54:23;;;;;;;0.30;0.17;;;;;;;5.91;100.00;100996.03;5040583;27;20523;-80
2023/04/19 09:56:53;;;;;;;0.32;0.20;;;;;;;5.92;100.00;100996.13;5046722;28;20546;-79
2023/04/19 09:59:31;;;;;;;1.08;0.30;;;;;;;5.91;100.00;100993.44;5045761;28;20044;-82
2023/04/19 10:02:02;;;;;;;0.73;0.30;;;;;;;5.93;100.00;101003.00;5046561;28;20042;-79
2023/04/19 10:04:31;;;;;;;0.63;0.45;;;;;;;5.96;100.00;101000.66;5044192;28;20052;-82
2023/04/19 10:07:00;;;;;;;3.08;0.65;;;;;;;5.98;100.00;101011.88;5046103;28;20048;-82
2023/04/19 10:09:29;;;;;;;2.50;0.65;;;;;;;5.97;100.00;101015.25;5043996;28;20056;-80
2023/04/19 10:12:00;;;;;;;2.35;0.80;;;;;;;5.96;100.00;101021.19;5038990;28;20045;-81
2023/04/19 10:14:32;;;;;;;1.60;0.63;;;;;;;5.97;100.00;101017.81;5038280;28;20052;-78
2023/04/19 10:17:03;;;;;;;0.53;0.40;;;;;;;5.98;100.00;101017.03;5041588;28;20136;-82
2023/04/19 10:19:36;;;;;;;0.93;0.45;;;;;;;5.97;100.00;101025.50;5043405;28;20053;-83
2023/04/19 10:22:06;;;;;;;1.02;0.80;;;;;;;5.96;100.00;101034.03;5035974;28;20045;-80
2023/04/19 10:24:35;;;;;;;0.52;0.30;;;;;;;5.97;100.00;101035.78;5043045;28;20163;-79
2023/04/19 10:27:11;;;;;;;1.58;0.63;;;;;;;5.96;100.00;101041.75;5040828;28;20060;-80
2023/04/19 10:29:59;;;;;;;0.85;0.50;;;;;;;5.97;100.00;101034.91;5046634;28;20671;-78
2023/04/19 10:32:42;;;;;;;1.02;0.60;;;;;;;6.03;100.00;101045.53;5041453;28;20543;-81
2023/04/19 10:35:18;;;;;;;2.30;0.68;;;;;;;6.07;100.00;101048.31;5046396;28;20127;-81
2023/04/19 10:38:05;;;;;;;1.13;0.68;;;;;;;6.12;100.00;101042.56;5035205;28;20052;-81
2023/04/19 10:41:03;;;;;;;0.88;0.45;;;;;;;6.15;100.00;101050.41;5047864;28;20059;-80
2023/04/19 10:43:32;;;;;;;1.17;0.32;;;;;;;6.16;100.00;101052.16;4989043;28;20061;-82
2023/04/19 10:46:03;;;;;;;0.43;0.30;;;;;;;6.18;100.00;101060.84;5034980;28;20494;-82
2023/04/19 10:48:52;;;;;;;0.77;0.35;;;;;;;6.18;100.00;101064.28;5044228;28;20056;-80
2023/04/19 10:51:22;;;;;;;1.27;0.40;;;;;;;6.20;100.00;101065.25;5040177;28;20084;-81
2023/04/19 10:53:56;;;;;;;0.55;0.45;;;;;;;6.21;100.00;101066.16;5043408;28;20052;-83
2023/04/19 10:57:06;;;;;;;0.98;0.25;;;;;;;6.21;100.00;101071.28;5034007;28;20187;-83
2023/04/19 10:59:35;;;;;;;0.30;0.30;;;;;;;6.21;100.00;101063.59;5044537;28;20081;-82
2023/04/19 11:02:05;;;;;;;0.25;0.25;;;;;;;6.23;100.00;101059.38;5041093;28;20175;-80
2023/04/19 11:05:12;;;;;;;0.88;0.35;;;;;;;6.18;100.00;101068.53;5034013;28;20041;-80
2023/04/19 11:07:46;;;;;;;0.85;0.73;;;;;;;6.10;100.00;101062.13;5038139;28;20049;-79
2023/04/19 11:10:28;;;;;;;3.42;0.43;;;;;;;6.01;100.00;101063.41;5061169;28;20611;-84
2023/04/19 11:12:57;;;;;;;2.22;0.17;;;;;;;5.96;100.00;101058.84;5059343;28;20749;-80
2023/04/19 11:15:26;;;;;;;4.18;0.47;;;;;;;5.92;100.00;101068.03;5066564;28;20067;-79
2023/04/19 11:17:55;;;;;;;0.88;0.30;;;;;;;5.84;100.00;101074.44;5061802;28;20399;-80
2023/04/19 11:20:25;;;;;;;0.45;0.20;;;;;;;5.84;100.00;101071.84;5064663;28;20063;-81
2023/04/19 11:22:59;;;;;;;0.28;0.17;;;;;;;5.85;100.00;101068.50;5062562;28;20132;-81
2023/04/19 11:25:32;;;;;;;3.25;0.30;;;;;;;5.83;100.00;101068.41;5067137;28;20042;-80
2023/04/19 11:28:01;;;;;;;0.45;0.30;;;;;;;5.83;100.00;101067.53;5066971;28;20045;-81
2023/04/19 11:30:31;;;;;;;0.88;0.30;;;;;;;5.79;100.00;101070.72;5063584;28;20045;-79
2023/04/19 11:33:00;;;;;;;2.50;0.30;;;;;;;5.77;100.00;101073.25;5057146;28;20056;-78
2023/04/19 11:35:30;;;;;;;4.88;0.52;;;;;;;5.75;100.00;101079.06;5063387;28;20654;-78
2023/04/19 11:38:01;;;;;;;0.35;0.15;;;;;;;5.76;100.00;101080.84;5061379;28;20048;-80
2023/04/19 11:40:30;;;;;;;0.20;0.20;;;;;;;5.77;100.00;101098.00;5060955;28;20045;-79